Time;durP1;ratioP1;P1;durP2;ratioP2;P2;SDS_P1;SDS_P2;PMS_P1;PMS_P2;Temp;Humidity;BMP_temperature;BMP_pressure;BME280_temperature;BME280_humidity;BME280_pressure;Samples;Min_cycle;Max_cycle;Signal;HPM_P1;HPM_P2
2020/12/28 00:01:45;;;;;;;1.73;1.33;;;;;;;;;;5045994;28;20470;-50
2020/12/28 00:04:11;;;;;;;1.60;1.50;;;;;;;;;;5050345;28;20462;-51
2020/12/28 00:06:37;;;;;;;1.80;1.60;;;;;;;;;;5050243;28;20414;-52
2020/12/28 00:09:05;;;;;;;1.42;1.33;;;;;;;;;;5050578;28;20432;-53
2020/12/28 00:11:31;;;;;;;1.70;1.60;;;;;;;;;;5050141;28;20181;-51
2020/12/28 00:13:57;;;;;;;1.80;1.70;;;;;;;;;;5046022;28;20552;-51
2020/12/28 00:16:23;;;;;;;1.60;1.50;;;;;;;;;;5050155;28;20410;-51
2020/12/28 00:18:49;;;;;;;1.70;1.60;;;;;;;;;;5050337;28;20433;-52
2020/12/28 00:21:15;;;;;;;1.50;1.40;;;;;;;;;;5049888;28;20558;-51
2020/12/28 00:23:41;;;;;;;1.60;1.50;;;;;;;;;;5050064;28;20422;-51
2020/12/28 00:26:07;;;;;;;2.83;1.87;;;;;;;;;;5050164;28;20940;-50
2020/12/28 00:28:33;;;;;;;1.40;1.30;;;;;;;;;;5050037;28;20408;-51
2020/12/28 00:30:59;;;;;;;1.60;1.50;;;;;;;;;;5050139;28;20459;-51
2020/12/28 00:33:25;;;;;;;1.60;1.50;;;;;;;;;;5048030;28;20498;-50
2020/12/28 00:35:51;;;;;;;1.37;1.27;;;;;;;;;;5054086;28;20413;-52
2020/12/28 00:38:17;;;;;;;1.40;1.30;;;;;;;;;;5053685;28;20489;-50
2020/12/28 00:40:43;;;;;;;1.63;1.53;;;;;;;;;;5053695;28;20472;-51
2020/12/28 00:43:09;;;;;;;1.27;1.20;;;;;;;;;;5053226;28;20472;-52
2020/12/28 00:45:35;;;;;;;7.60;1.50;;;;;;;;;;5053723;28;20395;-51
2020/12/28 00:48:01;;;;;;;1.65;1.55;;;;;;;;;;5053498;28;20944;-51
2020/12/28 00:50:27;;;;;;;1.40;1.30;;;;;;;;;;5053563;28;20177;-51
2020/12/28 00:52:53;;;;;;;1.73;1.63;;;;;;;;;;5053311;28;20433;-50
2020/12/28 00:55:19;;;;;;;1.63;1.53;;;;;;;;;;5053390;28;20396;-51
2020/12/28 00:57:45;;;;;;;1.40;1.33;;;;;;;;;;5053455;28;20813;-51
2020/12/28 01:00:11;;;;;;;1.50;1.40;;;;;;;;;;5053261;28;20229;-52
2020/12/28 01:02:37;;;;;;;1.43;1.40;;;;;;;;;;5050046;28;20442;-50
2020/12/28 01:05:03;;;;;;;1.10;1.10;;;;;;;;;;5053011;28;20418;-51
2020/12/28 01:07:29;;;;;;;1.50;1.40;;;;;;;;;;5053326;28;20488;-51
2020/12/28 01:09:55;;;;;;;1.73;1.63;;;;;;;;;;5053049;28;20404;-50
2020/12/28 01:12:21;;;;;;;1.90;1.48;;;;;;;;;;5052889;28;20190;-51
2020/12/28 01:14:47;;;;;;;1.67;1.57;;;;;;;;;;5053027;28;20175;-50
2020/12/28 01:17:13;;;;;;;1.50;1.40;;;;;;;;;;5053169;28;20451;-50
2020/12/28 01:19:39;;;;;;;1.70;1.60;;;;;;;;;;5052960;28;20412;-52
2020/12/28 01:22:05;;;;;;;1.48;1.38;;;;;;;;;;5052649;28;21034;-51
2020/12/28 01:24:31;;;;;;;1.40;1.30;;;;;;;;;;5053180;28;20247;-51
2020/12/28 01:26:57;;;;;;;1.40;1.30;;;;;;;;;;5053069;28;20401;-51
2020/12/28 01:29:23;;;;;;;3.10;1.50;;;;;;;;;;5053310;28;20771;-51
2020/12/28 01:31:49;;;;;;;1.50;1.40;;;;;;;;;;5052827;28;20411;-51
2020/12/28 01:34:15;;;;;;;1.37;1.27;;;;;;;;;;5049803;28;20427;-52
2020/12/28 01:36:41;;;;;;;1.40;1.37;;;;;;;;;;5052935;28;20807;-52
2020/12/28 01:39:07;;;;;;;1.40;1.37;;;;;;;;;;5052892;28;20737;-51
2020/12/28 01:41:33;;;;;;;1.60;1.50;;;;;;;;;;5052231;28;20456;-52
2020/12/28 01:43:59;;;;;;;1.60;1.50;;;;;;;;;;5052341;28;20468;-52
2020/12/28 01:46:25;;;;;;;1.67;1.57;;;;;;;;;;5052503;28;20394;-52
2020/12/28 01:48:52;;;;;;;1.75;1.50;;;;;;;;;;5052498;28;20404;-52
2020/12/28 01:51:18;;;;;;;1.80;1.70;;;;;;;;;;5052129;28;20189;-52
2020/12/28 01:53:44;;;;;;;1.63;1.52;;;;;;;;;;5052626;28;20273;-52
2020/12/28 01:56:12;;;;;;;1.45;1.40;;;;;;;;;;5052416;28;20164;-52
2020/12/28 01:58:38;;;;;;;1.40;1.30;;;;;;;;;;5052211;28;20180;-51
2020/12/28 02:01:04;;;;;;;1.57;1.47;;;;;;;;;;5052147;28;20189;-51
2020/12/28 02:03:30;;;;;;;1.70;1.60;;;;;;;;;;5049610;28;20450;-52
2020/12/28 02:05:56;;;;;;;1.63;1.53;;;;;;;;;;5050977;28;20274;-51
2020/12/28 02:08:22;;;;;;;1.90;1.80;;;;;;;;;;5051988;28;20400;-51
2020/12/28 02:10:48;;;;;;;1.50;1.40;;;;;;;;;;5052107;28;20169;-50
2020/12/28 02:13:14;;;;;;;1.60;1.50;;;;;;;;;;5051525;28;20203;-50
2020/12/28 02:15:40;;;;;;;1.60;1.50;;;;;;;;;;5052029;28;20171;-51
2020/12/28 02:18:06;;;;;;;3.88;2.15;;;;;;;;;;5051748;28;20461;-52
2020/12/28 02:20:32;;;;;;;1.60;1.50;;;;;;;;;;5051870;28;20196;-50
2020/12/28 02:22:58;;;;;;;2.53;1.70;;;;;;;;;;5051407;28;20180;-50
2020/12/28 02:25:24;;;;;;;1.90;1.80;;;;;;;;;;5052250;28;20410;-52
2020/12/28 02:27:50;;;;;;;2.50;2.15;;;;;;;;;;5051730;28;20841;-51
2020/12/28 02:30:16;;;;;;;1.70;1.60;;;;;;;;;;5050990;28;20324;-51
2020/12/28 02:32:42;;;;;;;1.37;1.27;;;;;;;;;;5047311;28;20935;-50
2020/12/28 02:35:08;;;;;;;1.47;1.43;;;;;;;;;;5051443;28;20768;-51
2020/12/28 02:37:34;;;;;;;1.93;1.40;;;;;;;;;;5051579;28;20878;-50
2020/12/28 02:40:00;;;;;;;1.48;1.38;;;;;;;;;;5051251;28;20406;-51
2020/12/28 02:42:26;;;;;;;1.60;1.50;;;;;;;;;;5051219;28;20332;-51
2020/12/28 02:44:52;;;;;;;1.67;1.57;;;;;;;;;;5051316;28;20258;-51
2020/12/28 02:47:17;;;;;;;1.63;1.53;;;;;;;;;;5051327;28;20412;-51
2020/12/28 02:49:43;;;;;;;1.53;1.43;;;;;;;;;;5051223;28;20882;-51
2020/12/28 02:52:10;;;;;;;1.60;1.50;;;;;;;;;;5050970;28;20431;-52
2020/12/28 02:54:36;;;;;;;1.60;1.50;;;;;;;;;;5051171;28;20403;-51
2020/12/28 02:57:02;;;;;;;1.60;1.50;;;;;;;;;;5050590;28;20588;-51
2020/12/28 02:59:28;;;;;;;2.65;2.00;;;;;;;;;;5051205;28;20430;-51
2020/12/28 03:01:54;;;;;;;1.90;1.80;;;;;;;;;;5048721;28;20668;-51
2020/12/28 03:04:20;;;;;;;2.00;1.67;;;;;;;;;;5051005;28;20807;-50
2020/12/28 03:06:46;;;;;;;1.70;1.60;;;;;;;;;;5050971;28;20428;-51
2020/12/28 03:09:12;;;;;;;1.47;1.37;;;;;;;;;;5050995;28;20440;-51
2020/12/28 03:11:38;;;;;;;1.80;1.70;;;;;;;;;;5050596;28;20407;-51
2020/12/28 03:14:07;;;;;;;1.90;1.80;;;;;;;;;;5050906;28;20415;-51
2020/12/28 03:16:33;;;;;;;2.78;1.63;;;;;;;;;;5050796;28;20454;-51
2020/12/28 03:18:59;;;;;;;1.27;1.27;;;;;;;;;;5050929;28;20177;-51
2020/12/28 03:21:25;;;;;;;1.77;1.67;;;;;;;;;;5050396;28;20501;-51
2020/12/28 03:23:51;;;;;;;1.50;1.40;;;;;;;;;;5050718;28;20507;-51
2020/12/28 03:26:17;;;;;;;1.73;1.63;;;;;;;;;;5050682;28;20400;-52
2020/12/28 03:28:43;;;;;;;1.70;1.60;;;;;;;;;;5051101;28;20400;-51
2020/12/28 03:31:09;;;;;;;2.30;2.20;;;;;;;;;;5050502;28;20408;-50
2020/12/28 03:33:35;;;;;;;1.90;1.80;;;;;;;;;;5047490;28;20512;-50
2020/12/28 03:36:01;;;;;;;1.90;1.80;;;;;;;;;;5050874;28;20407;-50
2020/12/28 03:38:27;;;;;;;1.87;1.77;;;;;;;;;;5050474;28;20429;-50
2020/12/28 03:40:53;;;;;;;1.90;1.80;;;;;;;;;;5050680;28;20536;-50
2020/12/28 03:43:19;;;;;;;1.63;1.53;;;;;;;;;;5050164;28;20784;-51
2020/12/28 03:45:45;;;;;;;2.20;1.60;;;;;;;;;;5050594;28;20452;-51
2020/12/28 03:48:11;;;;;;;1.53;1.43;;;;;;;;;;5050433;28;20478;-52
2020/12/28 03:50:37;;;;;;;1.77;1.67;;;;;;;;;;5050573;28;20427;-52
2020/12/28 03:53:03;;;;;;;1.40;1.40;;;;;;;;;;5050097;28;20426;-51
2020/12/28 03:55:29;;;;;;;1.53;1.50;;;;;;;;;;5050598;28;20533;-51
2020/12/28 03:57:54;;;;;;;1.40;1.30;;;;;;;;;;5050401;28;20449;-51
2020/12/28 04:00:20;;;;;;;1.47;1.37;;;;;;;;;;5050501;28;20393;-51
2020/12/28 04:02:49;;;;;;;1.83;1.70;;;;;;;;;;5048418;28;20533;-51
2020/12/28 04:05:15;;;;;;;1.67;1.50;;;;;;;;;;5050772;28;20432;-51
2020/12/28 04:07:41;;;;;;;4.90;1.37;;;;;;;;;;5052926;28;20175;-51
2020/12/28 04:10:07;;;;;;;1.77;1.67;;;;;;;;;;5054409;28;20395;-51
2020/12/28 04:12:33;;;;;;;1.80;1.70;;;;;;;;;;5054124;28;20421;-51
2020/12/28 04:14:59;;;;;;;1.67;1.57;;;;;;;;;;5054253;28;20407;-52
2020/12/28 04:17:25;;;;;;;1.63;1.53;;;;;;;;;;5054327;28;20422;-51
2020/12/28 04:19:51;;;;;;;1.30;1.30;;;;;;;;;;5054140;28;20432;-51
2020/12/28 04:22:17;;;;;;;1.70;1.60;;;;;;;;;;5053770;28;20459;-51
2020/12/28 04:24:43;;;;;;;1.40;1.40;;;;;;;;;;5054024;28;20169;-51
2020/12/28 04:27:09;;;;;;;1.80;1.70;;;;;;;;;;5053965;28;20406;-51
2020/12/28 04:29:35;;;;;;;2.10;2.00;;;;;;;;;;5054047;28;20406;-51
2020/12/28 04:32:01;;;;;;;2.17;1.90;;;;;;;;;;5050534;28;20861;-52
2020/12/28 04:34:27;;;;;;;2.00;1.90;;;;;;;;;;5053801;28;20404;-50
2020/12/28 04:36:53;;;;;;;1.60;1.50;;;;;;;;;;5053980;28;20489;-51
2020/12/28 04:39:19;;;;;;;1.40;1.40;;;;;;;;;;5053894;28;20434;-51
2020/12/28 04:41:45;;;;;;;1.67;1.57;;;;;;;;;;5053203;28;20892;-51
2020/12/28 04:44:11;;;;;;;2.10;2.00;;;;;;;;;;5053965;28;20405;-51
2020/12/28 04:46:37;;;;;;;2.08;1.95;;;;;;;;;;5053504;28;20166;-52
2020/12/28 04:49:03;;;;;;;2.13;2.03;;;;;;;;;;5053661;28;20215;-50
2020/12/28 04:51:29;;;;;;;1.45;1.35;;;;;;;;;;5053166;28;20197;-52
2020/12/28 04:53:58;;;;;;;1.37;1.30;;;;;;;;;;5053555;28;20231;-51
2020/12/28 04:56:23;;;;;;;2.08;1.88;;;;;;;;;;5053328;28;20882;-52
2020/12/28 04:58:50;;;;;;;1.73;1.63;;;;;;;;;;5053589;28;20173;-52
2020/12/28 05:01:16;;;;;;;2.47;1.90;;;;;;;;;;5049986;28;20471;-53
2020/12/28 05:03:42;;;;;;;4.13;1.70;;;;;;;;;;5052246;28;20186;-53
2020/12/28 05:06:09;;;;;;;1.70;1.60;;;;;;;;;;5053167;28;20562;-51
2020/12/28 05:08:35;;;;;;;1.83;1.73;;;;;;;;;;5053328;28;20398;-51
2020/12/28 05:11:07;;;;;;;1.85;1.75;;;;;;;;;;5053185;28;20616;-50
2020/12/28 05:13:33;;;;;;;1.70;1.60;;;;;;;;;;5053361;28;20200;-52
2020/12/28 05:15:59;;;;;;;1.53;1.50;;;;;;;;;;5053161;28;20250;-51
2020/12/28 05:18:25;;;;;;;1.50;1.40;;;;;;;;;;5052293;28;20411;-51
2020/12/28 05:20:51;;;;;;;2.00;1.90;;;;;;;;;;5053020;28;21048;-50
2020/12/28 05:23:18;;;;;;;2.35;1.80;;;;;;;;;;5052568;28;20197;-51
2020/12/28 05:25:45;;;;;;;1.48;1.38;;;;;;;;;;5052981;28;20159;-52
2020/12/28 05:28:21;;;;;;;1.90;1.80;;;;;;;;;;5052822;28;20164;-51
2020/12/28 05:30:49;;;;;;;1.98;1.88;;;;;;;;;;5052875;28;20872;-51
2020/12/28 05:33:15;;;;;;;2.00;1.90;;;;;;;;;;5049491;28;20210;-53
2020/12/28 05:35:42;;;;;;;2.00;1.90;;;;;;;;;;5052845;28;20201;-51
2020/12/28 05:38:09;;;;;;;1.80;1.70;;;;;;;;;;5052658;28;20186;-52
2020/12/28 05:40:37;;;;;;;2.05;1.95;;;;;;;;;;5052756;28;20227;-52
2020/12/28 05:43:03;;;;;;;2.30;2.20;;;;;;;;;;5052401;28;20525;-51
2020/12/28 05:45:29;;;;;;;2.45;2.35;;;;;;;;;;5052967;28;20689;-51
2020/12/28 05:47:57;;;;;;;2.13;2.03;;;;;;;;;;5052759;28;20179;-52
2020/12/28 05:50:29;;;;;;;2.58;2.47;;;;;;;;;;5052732;28;20444;-51
2020/12/28 05:52:56;;;;;;;3.47;2.50;;;;;;;;;;5052499;28;20249;-52
2020/12/28 05:55:23;;;;;;;2.40;2.30;;;;;;;;;;5052399;28;20164;-52
2020/12/28 05:57:50;;;;;;;2.50;2.40;;;;;;;;;;5052433;28;20510;-51
2020/12/28 06:00:16;;;;;;;2.80;2.60;;;;;;;;;;5052208;28;20248;-52
2020/12/28 06:02:43;;;;;;;2.35;2.25;;;;;;;;;;5048808;28;20197;-52
2020/12/28 06:05:09;;;;;;;3.97;2.10;;;;;;;;;;5048529;28;20194;-51
2020/12/28 06:07:36;;;;;;;2.50;2.40;;;;;;;;;;5052219;28;20177;-51
2020/12/28 06:10:02;;;;;;;2.72;2.53;;;;;;;;;;5052076;28;20180;-52
2020/12/28 06:12:28;;;;;;;2.40;2.17;;;;;;;;;;5051808;28;20581;-52
2020/12/28 06:14:55;;;;;;;2.40;2.20;;;;;;;;;;5051893;28;20404;-51
2020/12/28 06:17:31;;;;;;;2.90;2.70;;;;;;;;;;5052040;28;20408;-53
2020/12/28 06:19:59;;;;;;;3.03;2.80;;;;;;;;;;5051780;28;20173;-51
2020/12/28 06:22:25;;;;;;;3.15;2.95;;;;;;;;;;5051504;28;20207;-51
2020/12/28 06:24:57;;;;;;;3.50;3.30;;;;;;;;;;5051737;28;20176;-50
2020/12/28 06:27:33;;;;;;;2.90;2.70;;;;;;;;;;5051760;28;20402;-50
2020/12/28 06:30:15;;;;;;;3.38;3.13;;;;;;;;;;5051117;28;20169;-52
2020/12/28 06:32:41;;;;;;;4.28;3.90;;;;;;;;;;5048294;28;20312;-52
2020/12/28 06:35:09;;;;;;;3.47;3.28;;;;;;;;;;5051623;28;20169;-51
2020/12/28 06:37:39;;;;;;;4.18;2.90;;;;;;;;;;5051602;28;20172;-51
2020/12/28 06:40:05;;;;;;;3.20;3.00;;;;;;;;;;5051557;28;20170;-51
2020/12/28 06:42:31;;;;;;;3.40;3.10;;;;;;;;;;5050996;28;20204;-51
2020/12/28 06:44:57;;;;;;;4.43;4.03;;;;;;;;;;5051375;28;20198;-50
2020/12/28 06:47:24;;;;;;;3.73;3.43;;;;;;;;;;5051299;28;20666;-51
2020/12/28 06:49:51;;;;;;;3.90;3.60;;;;;;;;;;5051362;28;20395;-51
2020/12/28 06:52:17;;;;;;;3.60;3.30;;;;;;;;;;5050871;28;20195;-51
2020/12/28 06:54:44;;;;;;;2.95;2.80;;;;;;;;;;5051304;28;20227;-52
2020/12/28 06:57:10;;;;;;;3.03;2.63;;;;;;;;;;5051058;28;20184;-52
2020/12/28 06:59:39;;;;;;;2.30;2.20;;;;;;;;;;5051199;28;20196;-51
2020/12/28 07:02:06;;;;;;;2.50;2.40;;;;;;;;;;5050788;28;20287;-52
2020/12/28 07:04:34;;;;;;;2.38;1.88;;;;;;;;;;5048097;28;20201;-51
2020/12/28 07:07:04;;;;;;;2.50;2.38;;;;;;;;;;5050432;28;20170;-51
2020/12/28 07:09:30;;;;;;;2.20;2.10;;;;;;;;;;5048542;28;20187;-50
2020/12/28 07:12:03;;;;;;;3.40;2.10;;;;;;;;;;5050381;28;20165;-50
2020/12/28 07:14:29;;;;;;;2.20;2.10;;;;;;;;;;5049754;28;20656;-51
2020/12/28 07:16:56;;;;;;;2.10;2.00;;;;;;;;;;5050140;28;20175;-51
2020/12/28 07:19:22;;;;;;;1.98;1.88;;;;;;;;;;5050663;28;20415;-52
2020/12/28 07:21:48;;;;;;;2.70;2.33;;;;;;;;;;5050240;28;20203;-52
2020/12/28 07:24:14;;;;;;;3.27;1.90;;;;;;;;;;5050799;28;20259;-51
2020/12/28 07:26:43;;;;;;;2.10;2.00;;;;;;;;;;5050896;28;20405;-52
2020/12/28 07:29:14;;;;;;;2.17;2.08;;;;;;;;;;5050623;28;20164;-51
2020/12/28 07:31:41;;;;;;;2.30;2.20;;;;;;;;;;5050698;28;20189;-52
2020/12/28 07:34:07;;;;;;;2.42;2.28;;;;;;;;;;5046806;28;20205;-51
2020/12/28 07:36:33;;;;;;;1.80;1.70;;;;;;;;;;5047805;28;20201;-52
2020/12/28 07:39:00;;;;;;;1.90;1.70;;;;;;;;;;5032462;28;20264;-49
2020/12/28 07:41:27;;;;;;;3.80;3.53;;;;;;;;;;5029708;28;20287;-49
2020/12/28 07:43:57;;;;;;;3.97;3.67;;;;;;;;;;5029374;28;20560;-49
2020/12/28 07:46:35;;;;;;;2.00;1.90;;;;;;;;;;5034089;28;20199;-50
2020/12/28 07:49:07;;;;;;;2.05;1.95;;;;;;;;;;5030369;28;20174;-51
2020/12/28 07:51:36;;;;;;;2.35;1.83;;;;;;;;;;5029666;28;20170;-50
2020/12/28 07:54:05;;;;;;;2.25;2.15;;;;;;;;;;5030031;28;20196;-51
2020/12/28 07:56:43;;;;;;;1.80;1.70;;;;;;;;;;5030000;28;20797;-52
2020/12/28 07:59:15;;;;;;;2.00;1.90;;;;;;;;;;5029980;28;20174;-52
2020/12/28 08:01:44;;;;;;;2.22;1.98;;;;;;;;;;5029182;28;20189;-53
2020/12/28 08:04:12;;;;;;;2.20;2.10;;;;;;;;;;5043431;28;20179;-51
2020/12/28 08:06:38;;;;;;;1.85;1.75;;;;;;;;;;5050310;28;20207;-50
2020/12/28 08:09:04;;;;;;;1.73;1.63;;;;;;;;;;5049379;28;20160;-51
2020/12/28 08:11:31;;;;;;;1.85;1.65;;;;;;;;;;5049691;28;20164;-51
2020/12/28 08:13:57;;;;;;;1.65;1.55;;;;;;;;;;5050252;28;20222;-51
2020/12/28 08:16:26;;;;;;;1.50;1.42;;;;;;;;;;5043742;28;20253;-51
2020/12/28 08:18:55;;;;;;;1.80;1.70;;;;;;;;;;5030446;28;20175;-52
2020/12/28 08:21:25;;;;;;;2.55;2.35;;;;;;;;;;5030036;28;20195;-51
2020/12/28 08:23:53;;;;;;;2.13;2.03;;;;;;;;;;5030248;28;20194;-51
2020/12/28 08:26:21;;;;;;;2.10;2.00;;;;;;;;;;5030868;28;20193;-50
2020/12/28 08:28:47;;;;;;;3.15;1.90;;;;;;;;;;5030093;28;20203;-49
2020/12/28 08:31:13;;;;;;;1.52;1.42;;;;;;;;;;5030008;28;20171;-50
2020/12/28 08:33:39;;;;;;;1.60;1.45;;;;;;;;;;5035267;28;20193;-50
2020/12/28 08:36:06;;;;;;;1.40;1.30;;;;;;;;;;5050120;28;20204;-50
2020/12/28 08:38:35;;;;;;;1.60;1.50;;;;;;;;;;5050055;28;20258;-49
2020/12/28 08:41:01;;;;;;;1.67;1.58;;;;;;;;;;5049975;28;20186;-51
2020/12/28 08:43:28;;;;;;;2.33;1.75;;;;;;;;;;5049595;28;20197;-50
2020/12/28 08:46:05;;;;;;;1.50;1.40;;;;;;;;;;5050060;28;20162;-48
2020/12/28 08:48:31;;;;;;;1.55;1.45;;;;;;;;;;5050007;28;20179;-50
2020/12/28 08:50:57;;;;;;;2.15;1.90;;;;;;;;;;5050084;28;20265;-49
2020/12/28 08:53:25;;;;;;;3.72;2.30;;;;;;;;;;5049578;28;20195;-49
2020/12/28 08:55:57;;;;;;;2.38;1.80;;;;;;;;;;5053551;28;20174;-49
2020/12/28 08:58:25;;;;;;;1.73;1.63;;;;;;;;;;5053649;28;20257;-52
2020/12/28 09:00:51;;;;;;;1.70;1.60;;;;;;;;;;5053484;28;20193;-53
2020/12/28 09:03:20;;;;;;;1.63;1.53;;;;;;;;;;5051428;28;20202;-50
2020/12/28 09:05:46;;;;;;;1.80;1.70;;;;;;;;;;5053206;28;20418;-48
2020/12/28 09:08:13;;;;;;;1.50;1.40;;;;;;;;;;5053441;28;20166;-49
2020/12/28 09:10:41;;;;;;;3.33;1.50;;;;;;;;;;5053412;28;20572;-50
2020/12/28 09:13:07;;;;;;;1.87;1.43;;;;;;;;;;5052922;28;20415;-52
2020/12/28 09:15:33;;;;;;;2.20;1.50;;;;;;;;;;5053188;28;20454;-51
2020/12/28 09:17:59;;;;;;;1.40;1.30;;;;;;;;;;5053178;28;20457;-52
2020/12/28 09:20:25;;;;;;;1.20;1.10;;;;;;;;;;5053022;28;20488;-48
2020/12/28 09:22:51;;;;;;;1.00;1.00;;;;;;;;;;5052784;28;20426;-49
2020/12/28 09:25:17;;;;;;;0.93;0.90;;;;;;;;;;5049479;28;20421;-50
2020/12/28 09:27:43;;;;;;;1.07;0.97;;;;;;;;;;5037882;28;20418;-49
2020/12/28 09:30:09;;;;;;;2.27;1.20;;;;;;;;;;5033024;28;20402;-49
2020/12/28 09:32:36;;;;;;;1.40;1.30;;;;;;;;;;5032037;28;20511;-49
2020/12/28 09:35:03;;;;;;;1.03;1.00;;;;;;;;;;5051373;28;20428;-50
2020/12/28 09:37:29;;;;;;;1.87;1.77;;;;;;;;;;5053262;28;20527;-50
2020/12/28 09:39:56;;;;;;;1.00;1.00;;;;;;;;;;5052758;28;20406;-51
2020/12/28 09:42:22;;;;;;;1.23;1.13;;;;;;;;;;5040754;28;20535;-50
2020/12/28 09:44:48;;;;;;;4.60;1.63;;;;;;;;;;5032643;28;20438;-50
2020/12/28 09:47:14;;;;;;;1.10;1.00;;;;;;;;;;5032493;28;20786;-50
2020/12/28 09:49:40;;;;;;;2.27;1.37;;;;;;;;;;5031915;28;20457;-51
2020/12/28 09:52:06;;;;;;;0.90;0.90;;;;;;;;;;5031932;28;20764;-51
2020/12/28 09:54:34;;;;;;;1.40;1.30;;;;;;;;;;5032421;28;20405;-50
2020/12/28 09:57:05;;;;;;;1.63;1.30;;;;;;;;;;5032594;28;20424;-50
2020/12/28 09:59:31;;;;;;;1.00;0.90;;;;;;;;;;5032251;28;20413;-50
2020/12/28 10:01:57;;;;;;;0.90;0.90;;;;;;;;;;5031941;28;20449;-50
2020/12/28 10:04:23;;;;;;;1.50;1.20;;;;;;;;;;5041277;28;20499;-50
2020/12/28 10:06:49;;;;;;;1.07;0.97;;;;;;;;;;5052073;28;20906;-51
2020/12/28 10:09:15;;;;;;;1.63;1.00;;;;;;;;;;5051773;28;20401;-51
2020/12/28 10:11:41;;;;;;;1.23;1.10;;;;;;;;;;5050692;28;20467;-51
2020/12/28 10:14:07;;;;;;;2.83;1.10;;;;;;;;;;5051723;28;20426;-50
2020/12/28 10:16:33;;;;;;;1.10;1.00;;;;;;;;;;5051905;28;20421;-50
2020/12/28 10:19:00;;;;;;;1.00;1.00;;;;;;;;;;5052013;28;20408;-51
2020/12/28 10:21:26;;;;;;;1.57;1.30;;;;;;;;;;5051233;28;20835;-50
2020/12/28 10:23:54;;;;;;;1.00;1.00;;;;;;;;;;5051614;28;20429;-51
2020/12/28 10:26:21;;;;;;;1.73;1.53;;;;;;;;;;5050652;28;20428;-51
2020/12/28 10:28:48;;;;;;;1.97;1.40;;;;;;;;;;5051249;28;20898;-50
2020/12/28 10:31:14;;;;;;;1.37;1.27;;;;;;;;;;5049863;28;20775;-50
2020/12/28 10:33:41;;;;;;;1.20;1.10;;;;;;;;;;5049919;28;20441;-50
2020/12/28 10:36:12;;;;;;;1.40;1.27;;;;;;;;;;5048195;28;20433;-50
2020/12/28 10:38:39;;;;;;;1.30;1.20;;;;;;;;;;5051467;28;20405;-50
2020/12/28 10:41:04;;;;;;;1.23;1.13;;;;;;;;;;5051290;28;20451;-48
2020/12/28 10:43:30;;;;;;;2.10;1.53;;;;;;;;;;5051302;28;20413;-50
2020/12/28 10:45:56;;;;;;;3.27;1.50;;;;;;;;;;5051499;28;20883;-50
2020/12/28 10:48:22;;;;;;;1.50;1.40;;;;;;;;;;5051200;28;20408;-50
2020/12/28 10:50:48;;;;;;;3.60;1.30;;;;;;;;;;5049837;28;20421;-51
2020/12/28 10:53:14;;;;;;;1.77;1.40;;;;;;;;;;5050740;28;20421;-50
2020/12/28 10:55:40;;;;;;;1.20;1.10;;;;;;;;;;5051307;28;20444;-51
2020/12/28 10:58:06;;;;;;;1.10;1.00;;;;;;;;;;5049401;28;20424;-50
2020/12/28 11:00:32;;;;;;;1.90;1.50;;;;;;;;;;5051024;28;20435;-50
2020/12/28 11:02:58;;;;;;;1.40;1.30;;;;;;;;;;5050697;28;20562;-50
2020/12/28 11:05:24;;;;;;;4.30;1.57;;;;;;;;;;5050920;28;20515;-50
2020/12/28 11:07:50;;;;;;;1.30;1.23;;;;;;;;;;5051135;28;20406;-49
2020/12/28 11:10:16;;;;;;;1.50;1.30;;;;;;;;;;5047731;28;20434;-49
2020/12/28 11:12:45;;;;;;;2.07;1.40;;;;;;;;;;5049677;28;20489;-49
2020/12/28 11:15:11;;;;;;;1.33;1.23;;;;;;;;;;5050838;28;20414;-50
2020/12/28 11:17:37;;;;;;;1.80;1.70;;;;;;;;;;5050232;28;20406;-49
2020/12/28 11:20:03;;;;;;;4.30;1.53;;;;;;;;;;5050918;28;20443;-49
2020/12/28 11:22:29;;;;;;;2.00;1.50;;;;;;;;;;5050239;28;20471;-50
2020/12/28 11:24:55;;;;;;;1.60;1.50;;;;;;;;;;5050844;28;20401;-51
2020/12/28 11:27:21;;;;;;;1.90;1.80;;;;;;;;;;5050551;28;20453;-50
2020/12/28 11:29:47;;;;;;;1.10;1.10;;;;;;;;;;5050786;28;20922;-49
2020/12/28 11:32:12;;;;;;;1.50;1.30;;;;;;;;;;5050227;28;20455;-49
2020/12/28 11:34:40;;;;;;;1.57;1.47;;;;;;;;;;5050631;28;20402;-49
2020/12/28 11:37:06;;;;;;;1.40;1.30;;;;;;;;;;5046545;28;20478;-50
2020/12/28 11:39:33;;;;;;;1.40;1.30;;;;;;;;;;5050755;28;20405;-50
2020/12/28 11:42:00;;;;;;;1.93;1.20;;;;;;;;;;5050160;28;20814;-51
2020/12/28 11:44:26;;;;;;;2.60;1.50;;;;;;;;;;5050495;28;20402;-50
2020/12/28 11:46:55;;;;;;;1.10;1.10;;;;;;;;;;5049630;28;20461;-49
2020/12/28 11:49:22;;;;;;;1.20;1.20;;;;;;;;;;5049884;28;20393;-49
2020/12/28 11:51:51;;;;;;;2.00;1.23;;;;;;;;;;5050130;28;20163;-49
2020/12/28 11:54:17;;;;;;;2.35;1.50;;;;;;;;;;5046626;28;20170;-50
2020/12/28 11:56:43;;;;;;;1.63;1.53;;;;;;;;;;5035412;28;20186;-50
2020/12/28 11:59:10;;;;;;;2.30;1.57;;;;;;;;;;5030003;28;20406;-49
2020/12/28 12:01:36;;;;;;;1.67;1.58;;;;;;;;;;5029139;28;20449;-50
2020/12/28 12:04:02;;;;;;;1.90;1.50;;;;;;;;;;5030365;28;20684;-50
2020/12/28 12:06:28;;;;;;;1.77;1.60;;;;;;;;;;5028720;28;20445;-49
2020/12/28 12:11:35;;;;;;;1.90;1.73;;;;;;;;;;5020391;28;21033;-49
2020/12/28 12:14:04;;;;;;;1.50;1.40;;;;;;;;;;5028849;28;20429;-50
2020/12/28 12:16:30;;;;;;;2.07;1.30;;;;;;;;;;5028939;28;20413;-50
2020/12/28 12:18:56;;;;;;;1.93;1.80;;;;;;;;;;5030079;28;20911;-50
2020/12/28 12:21:25;;;;;;;1.43;1.33;;;;;;;;;;5029472;28;20457;-50
2020/12/28 12:23:51;;;;;;;3.20;1.90;;;;;;;;;;5030212;28;20429;-49
2020/12/28 12:26:21;;;;;;;2.90;1.50;;;;;;;;;;5029606;28;20414;-49
2020/12/28 12:28:48;;;;;;;1.20;1.10;;;;;;;;;;5031944;28;21081;-49
2020/12/28 12:31:14;;;;;;;1.50;1.40;;;;;;;;;;5032716;28;20787;-49
2020/12/28 12:33:40;;;;;;;1.20;1.10;;;;;;;;;;5033222;28;20465;-50
2020/12/28 12:36:06;;;;;;;2.40;1.53;;;;;;;;;;5033328;28;20404;-51
2020/12/28 12:38:32;;;;;;;1.67;1.30;;;;;;;;;;5044994;28;20510;-50
2020/12/28 12:40:58;;;;;;;1.83;1.37;;;;;;;;;;5043026;28;20449;-50
2020/12/28 12:43:24;;;;;;;2.93;2.70;;;;;;;;;;5032746;28;20916;-49
2020/12/28 12:45:52;;;;;;;2.40;1.50;;;;;;;;;;5032931;28;20500;-50
2020/12/28 12:48:18;;;;;;;1.40;1.30;;;;;;;;;;5033129;28;20413;-50
2020/12/28 12:50:44;;;;;;;2.10;1.87;;;;;;;;;;5033632;28;20844;-50
2020/12/28 12:53:11;;;;;;;1.70;1.60;;;;;;;;;;5033315;28;20789;-51
2020/12/28 12:55:40;;;;;;;1.60;1.50;;;;;;;;;;5032493;28;20830;-50
2020/12/28 12:58:06;;;;;;;1.47;1.37;;;;;;;;;;5032898;28;20449;-50
2020/12/28 13:00:32;;;;;;;1.70;1.60;;;;;;;;;;5032705;28;20476;-50
2020/12/28 13:02:58;;;;;;;1.50;1.40;;;;;;;;;;5033042;28;20501;-50
2020/12/28 13:05:24;;;;;;;1.73;1.63;;;;;;;;;;5032318;28;20932;-51
2020/12/28 13:07:50;;;;;;;3.17;2.03;;;;;;;;;;5033831;28;20512;-50
2020/12/28 13:10:16;;;;;;;1.83;1.63;;;;;;;;;;5032820;28;20501;-50
2020/12/28 13:12:42;;;;;;;1.93;1.60;;;;;;;;;;5032830;28;20422;-52
2020/12/28 13:15:09;;;;;;;3.13;2.20;;;;;;;;;;5033390;28;20493;-50
2020/12/28 13:17:36;;;;;;;2.07;1.90;;;;;;;;;;5033250;28;20416;-50
2020/12/28 13:20:02;;;;;;;1.80;1.67;;;;;;;;;;5031597;28;20422;-50
2020/12/28 13:22:28;;;;;;;2.13;1.80;;;;;;;;;;5032643;28;20464;-50
2020/12/28 13:24:54;;;;;;;2.10;1.87;;;;;;;;;;5032904;28;20875;-50
2020/12/28 13:27:21;;;;;;;3.43;1.70;;;;;;;;;;5033070;28;20397;-50
2020/12/28 13:29:47;;;;;;;3.30;2.30;;;;;;;;;;5032879;28;20809;-50
2020/12/28 13:32:13;;;;;;;1.83;1.73;;;;;;;;;;5032430;28;20451;-49
2020/12/28 13:34:39;;;;;;;1.90;1.80;;;;;;;;;;5036969;28;20416;-50
2020/12/28 13:37:05;;;;;;;2.10;2.00;;;;;;;;;;5035505;28;20436;-50
2020/12/28 13:39:31;;;;;;;2.77;2.40;;;;;;;;;;5050653;28;20415;-49
2020/12/28 13:42:00;;;;;;;2.63;2.40;;;;;;;;;;5051972;28;20944;-50
2020/12/28 13:44:27;;;;;;;3.30;2.30;;;;;;;;;;5051837;28;20498;-50
2020/12/28 13:46:53;;;;;;;3.10;1.97;;;;;;;;;;5047824;28;20409;-50
2020/12/28 13:49:19;;;;;;;1.77;1.67;;;;;;;;;;5032572;28;20412;-49
2020/12/28 13:51:45;;;;;;;2.43;2.23;;;;;;;;;;5032319;28;20806;-50
2020/12/28 13:54:11;;;;;;;2.00;1.90;;;;;;;;;;5032374;28;20421;-49
2020/12/28 13:56:37;;;;;;;1.93;1.83;;;;;;;;;;5032440;28;20404;-49
2020/12/28 13:59:03;;;;;;;1.83;1.73;;;;;;;;;;5032318;28;20479;-50
2020/12/28 14:01:29;;;;;;;2.50;2.00;;;;;;;;;;5032065;28;20444;-50
2020/12/28 14:03:58;;;;;;;1.80;1.70;;;;;;;;;;5032140;28;20421;-50
2020/12/28 14:06:25;;;;;;;2.07;1.97;;;;;;;;;;5032133;28;20435;-50
2020/12/28 14:08:52;;;;;;;2.85;1.95;;;;;;;;;;5045656;28;20438;-50
2020/12/28 14:11:19;;;;;;;2.10;2.00;;;;;;;;;;5052036;28;20180;-50
2020/12/28 14:13:47;;;;;;;3.03;2.83;;;;;;;;;;5051871;28;20418;-50
2020/12/28 14:16:13;;;;;;;19.47;11.30;;;;;;;;;;5050839;28;20178;-49
2020/12/28 14:18:39;;;;;;;1.80;1.70;;;;;;;;;;5050136;28;20411;-51
2020/12/28 14:21:06;;;;;;;1.92;1.80;;;;;;;;;;5051438;28;20509;-50
2020/12/28 14:23:32;;;;;;;1.87;1.77;;;;;;;;;;5051762;28;20187;-49
2020/12/28 14:25:58;;;;;;;2.55;2.35;;;;;;;;;;5052258;28;20402;-49
2020/12/28 14:28:26;;;;;;;2.60;2.40;;;;;;;;;;5051799;28;20172;-49
2020/12/28 14:30:52;;;;;;;2.70;1.90;;;;;;;;;;5051660;28;20175;-50
2020/12/28 14:33:19;;;;;;;4.50;3.13;;;;;;;;;;5051362;28;20588;-50
2020/12/28 14:35:46;;;;;;;2.30;2.13;;;;;;;;;;5051638;28;20429;-49
2020/12/28 14:38:12;;;;;;;2.65;2.30;;;;;;;;;;5048595;28;20649;-49
2020/12/28 14:40:38;;;;;;;4.47;2.73;;;;;;;;;;5051573;28;20194;-50
2020/12/28 14:43:05;;;;;;;3.13;1.90;;;;;;;;;;5051312;28;20418;-50